Time;durP1;ratioP1;P1;durP2;ratioP2;P2;SDS_P1;SDS_P2;PMS_P1;PMS_P2;Temp;Humidity;BMP_temperature;BMP_pressure;BME280_temperature;BME280_humidity;BME280_pressure;Samples;Min_cycle;Max_cycle;Signal;HPM_P1;HPM_P2
2021/12/06 00:02:43;;;;;;;44.25;19.35;;;;;;;3.03;94.24;98655.81;4434060;32;34229;-70
2021/12/06 00:05:30;;;;;;;41.37;19.75;;;;;;;3.10;94.63;98666.31;4432841;32;34211;-70
2021/12/06 00:08:17;;;;;;;40.58;18.90;;;;;;;3.79;89.84;98664.22;4434833;32;34811;-70
2021/12/06 00:11:08;;;;;;;44.65;19.02;;;;;;;4.27;87.12;98680.41;4432594;32;34513;-70
2021/12/06 00:13:54;;;;;;;41.65;17.65;;;;;;;3.92;87.44;98678.94;4422706;32;35444;-70
2021/12/06 00:16:41;;;;;;;35.35;16.90;;;;;;;3.63;90.86;98684.44;4434019;32;34278;-70
2021/12/06 00:19:28;;;;;;;39.60;18.02;;;;;;;4.17;87.22;98689.47;4434010;32;34559;-70
2021/12/06 00:22:21;;;;;;;38.45;17.92;;;;;;;4.14;86.71;98686.53;4433201;32;35103;-70
2021/12/06 00:25:09;;;;;;;37.58;18.27;;;;;;;3.65;89.30;98682.25;4435170;32;35510;-71
2021/12/06 00:27:55;;;;;;;37.88;17.02;;;;;;;3.99;87.53;98677.50;4433069;32;35199;-70
2021/12/06 00:30:41;;;;;;;36.45;16.55;;;;;;;2.89;90.70;98668.41;4434638;32;34555;-70
2021/12/06 00:33:28;;;;;;;39.53;17.10;;;;;;;2.17;96.96;98676.22;4433889;32;35084;-71
2021/12/06 00:36:26;;;;;;;38.50;18.35;;;;;;;2.92;94.73;98678.66;4432456;32;35493;-70
2021/12/06 00:39:12;;;;;;;35.33;16.58;;;;;;;3.18;91.57;98679.22;4434157;32;34344;-70
2021/12/06 00:41:59;;;;;;;39.40;17.67;;;;;;;3.47;92.32;98692.75;4433315;32;34275;-70
2021/12/06 00:44:45;;;;;;;39.55;18.35;;;;;;;3.01;92.22;98679.66;4432505;32;35901;-70
2021/12/06 00:47:32;;;;;;;36.80;16.58;;;;;;;3.27;91.27;98668.56;4433788;32;33480;-71
2021/12/06 00:50:20;;;;;;;39.28;17.85;;;;;;;3.77;89.03;98685.38;4433893;32;34409;-70
2021/12/06 00:53:06;;;;;;;36.83;16.15;;;;;;;3.39;92.23;98698.78;4433116;32;35526;-70
2021/12/06 00:55:53;;;;;;;41.42;18.27;;;;;;;3.12;92.12;98702.81;4433380;32;34578;-70
2021/12/06 00:58:40;;;;;;;38.45;16.67;;;;;;;2.54;94.79;98699.25;4432306;32;34679;-70
2021/12/06 01:01:26;;;;;;;34.60;16.55;;;;;;;2.46;96.42;98697.94;4433907;32;35121;-70
2021/12/06 01:04:15;;;;;;;38.72;16.00;;;;;;;2.46;96.62;98696.03;4434307;32;35490;-70
2021/12/06 01:07:03;;;;;;;36.22;16.55;;;;;;;3.07;94.08;98708.28;4432268;32;35768;-71
2021/12/06 01:09:49;;;;;;;39.72;18.83;;;;;;;3.63;91.02;98701.50;4434684;32;34362;-70
2021/12/06 01:12:36;;;;;;;43.30;18.58;;;;;;;2.27;96.37;98686.16;4432441;32;34182;-71
2021/12/06 01:15:22;;;;;;;55.63;21.90;;;;;;;2.33;98.10;98674.22;4433523;32;35601;-70
2021/12/06 01:18:11;;;;;;;48.95;21.58;;;;;;;2.21;98.88;98674.56;4434974;32;34688;-70
2021/12/06 01:23:58;;;;;;;49.97;21.83;;;;;;;1.34;100.00;98670.38;4434221;32;34828;-70
2021/12/06 01:30:49;;;;;;;43.28;20.83;;;;;;;3.08;96.19;98679.34;4435828;32;35938;-70
2021/12/06 01:42:00;;;;;;;45.10;19.50;;;;;;;2.16;97.65;98686.25;4434356;32;35099;-71
2021/12/06 01:44:50;;;;;;;42.92;19.20;;;;;;;1.41;100.00;98686.25;4435614;32;34867;-70
2021/12/06 01:47:40;;;;;;;43.67;20.10;;;;;;;2.02;98.02;98677.94;4434473;32;34329;-70
2021/12/06 01:50:28;;;;;;;46.00;20.08;;;;;;;1.43;100.00;98680.59;4434824;32;34662;-70
2021/12/06 01:53:14;;;;;;;47.97;22.10;;;;;;;0.94;100.00;98697.41;4435367;32;35844;-70
2021/12/06 01:56:00;;;;;;;45.03;20.85;;;;;;;1.09;100.00;98681.22;4424231;32;34660;-70
2021/12/06 01:58:47;;;;;;;46.17;23.15;;;;;;;1.21;100.00;98694.41;4435088;32;34273;-70
2021/12/06 02:01:34;;;;;;;44.95;23.50;;;;;;;0.59;100.00;98707.09;4434544;32;35553;-70
2021/12/06 02:04:20;;;;;;;44.45;20.25;;;;;;;0.35;100.00;98701.44;4424515;32;34966;-70
2021/12/06 02:07:13;;;;;;;48.03;21.87;;;;;;;0.74;100.00;98706.28;4436417;32;34569;-70
2021/12/06 02:10:00;;;;;;;47.45;21.52;;;;;;;0.69;100.00;98695.53;4435646;32;34291;-70
2021/12/06 02:12:51;;;;;;;47.85;21.30;;;;;;;0.60;100.00;98687.19;4432745;32;35093;-70
2021/12/06 02:15:46;;;;;;;47.22;21.23;;;;;;;0.39;100.00;98687.12;4434797;32;35011;-70
2021/12/06 02:21:27;;;;;;;48.83;21.85;;;;;;;0.89;100.00;98682.84;4434848;32;35132;-70
2021/12/06 02:24:15;;;;;;;41.35;20.27;;;;;;;0.52;100.00;98675.03;4436522;32;34586;-70
2021/12/06 02:27:02;;;;;;;40.97;19.20;;;;;;;1.23;100.00;98666.06;4435534;32;35035;-70
2021/12/06 02:29:50;;;;;;;49.42;21.15;;;;;;;1.37;100.00;98668.19;4436221;32;35479;-70
2021/12/06 02:32:37;;;;;;;46.88;19.23;;;;;;;0.36;100.00;98676.88;4433464;32;34266;-70
2021/12/06 02:35:24;;;;;;;43.05;19.35;;;;;;;0.46;100.00;98676.09;4434959;32;33473;-69
2021/12/06 02:38:11;;;;;;;42.40;19.83;;;;;;;0.11;100.00;98672.25;4433305;32;36023;-70
2021/12/06 02:40:58;;;;;;;40.67;18.50;;;;;;;0.14;100.00;98682.53;4435244;32;34930;-71
2021/12/06 02:43:44;;;;;;;42.30;19.45;;;;;;;0.31;100.00;98689.53;4434602;32;35093;-70
2021/12/06 02:46:32;;;;;;;43.28;19.60;;;;;;;0.42;100.00;98683.91;4434630;32;34700;-70
2021/12/06 02:49:18;;;;;;;40.03;18.25;;;;;;;0.10;100.00;98689.50;4436225;32;34898;-69
2021/12/06 02:52:06;;;;;;;39.42;18.45;;;;;;;0.38;100.00;98682.03;4435866;32;33551;-69
2021/12/06 02:54:56;;;;;;;39.78;17.77;;;;;;;0.39;100.00;98694.41;4433973;32;34132;-70
2021/12/06 02:57:46;;;;;;;36.13;17.60;;;;;;;0.96;100.00;98690.66;4433963;32;35255;-70
2021/12/06 03:00:32;;;;;;;40.33;18.35;;;;;;;0.49;100.00;98696.31;4434404;32;34823;-70
2021/12/06 03:03:19;;;;;;;38.15;17.58;;;;;;;0.71;100.00;98699.56;4435584;32;35982;-70
2021/12/06 03:06:07;;;;;;;38.58;17.15;;;;;;;0.55;100.00;98700.66;4434600;32;35059;-70
2021/12/06 03:09:06;;;;;;;36.58;17.00;;;;;;;1.01;100.00;98714.94;4434137;32;34596;-70
2021/12/06 03:12:00;;;;;;;40.22;18.87;;;;;;;0.86;100.00;98710.34;4433621;32;35808;-69
2021/12/06 03:14:49;;;;;;;32.15;15.52;;;;;;;-0.04;100.00;98699.97;4435312;32;35430;-70
2021/12/06 03:17:37;;;;;;;40.00;18.23;;;;;;;0.17;100.00;98698.16;4435216;32;34186;-70
2021/12/06 03:20:23;;;;;;;37.05;18.12;;;;;;;0.64;100.00;98693.62;4433564;32;34756;-69
2021/12/06 03:23:10;;;;;;;35.47;18.55;;;;;;;0.39;100.00;98697.91;4423580;32;35015;-70
2021/12/06 03:25:58;;;;;;;39.60;18.37;;;;;;;0.03;100.00;98704.28;4434048;32;34168;-70
2021/12/06 03:28:46;;;;;;;37.92;19.12;;;;;;;0.22;100.00;98708.13;4423930;32;35147;-69
2021/12/06 03:31:33;;;;;;;37.25;17.23;;;;;;;-0.10;100.00;98706.41;4434601;32;34635;-69
2021/12/06 03:34:26;;;;;;;40.12;18.90;;;;;;;-0.04;100.00;98702.66;4435510;32;35974;-69
2021/12/06 03:37:13;;;;;;;40.88;19.40;;;;;;;-0.11;100.00;98710.19;4420535;32;34556;-69
2021/12/06 03:39:59;;;;;;;38.65;18.17;;;;;;;-0.20;100.00;98711.75;4433215;32;34341;-70
2021/12/06 03:42:46;;;;;;;46.10;20.77;;;;;;;0.08;100.00;98712.37;4434340;32;34746;-70
2021/12/06 03:45:35;;;;;;;38.92;18.33;;;;;;;-0.04;100.00;98720.69;4434310;32;34973;-69
2021/12/06 03:48:22;;;;;;;40.58;17.48;;;;;;;0.18;100.00;98728.59;4433169;32;35506;-70
2021/12/06 03:51:09;;;;;;;46.67;18.35;;;;;;;0.49;100.00;98728.66;4433881;32;34840;-70
2021/12/06 03:53:56;;;;;;;36.45;17.23;;;;;;;0.42;100.00;98716.25;4435286;32;34723;-70
2021/12/06 03:56:43;;;;;;;38.42;17.67;;;;;;;0.33;100.00;98711.66;4434045;32;35043;-69
2021/12/06 03:59:30;;;;;;;40.03;19.30;;;;;;;0.41;100.00;98714.63;4433915;32;35450;-69
2021/12/06 04:02:20;;;;;;;37.05;17.70;;;;;;;0.55;100.00;98714.13;4434504;32;34196;-70
2021/12/06 04:05:07;;;;;;;31.25;14.57;;;;;;;0.23;100.00;98715.16;4433389;32;34602;-70
2021/12/06 04:07:54;;;;;;;34.83;17.05;;;;;;;0.04;100.00;98719.41;4433669;32;34556;-70
2021/12/06 04:10:42;;;;;;;31.90;15.45;;;;;;;-0.05;100.00;98714.50;4434268;32;35440;-69
2021/12/06 04:13:29;;;;;;;30.88;14.85;;;;;;;0.27;100.00;98705.44;4434570;32;33982;-70
2021/12/06 04:16:16;;;;;;;30.70;15.55;;;;;;;0.41;100.00;98695.75;4423345;32;34588;-69
2021/12/06 04:19:06;;;;;;;34.80;15.98;;;;;;;-0.14;100.00;98705.34;4433879;32;35046;-70
2021/12/06 04:21:53;;;;;;;29.73;14.48;;;;;;;-0.19;100.00;98708.00;4431917;32;34225;-69
2021/12/06 04:24:39;;;;;;;34.47;14.90;;;;;;;-0.21;100.00;98714.72;4434370;32;35109;-69
2021/12/06 04:27:27;;;;;;;31.45;15.80;;;;;;;0.07;100.00;98716.97;4432401;32;34557;-69
2021/12/06 04:30:13;;;;;;;30.92;16.33;;;;;;;-0.18;100.00;98730.34;4434024;32;36450;-69
2021/12/06 04:32:59;;;;;;;36.33;17.50;;;;;;;-0.11;100.00;98726.34;4433630;32;34781;-70
2021/12/06 04:35:46;;;;;;;39.47;19.35;;;;;;;-0.41;100.00;98716.25;4409324;32;34454;-69
2021/12/06 04:38:33;;;;;;;36.47;17.10;;;;;;;-0.33;100.00;98723.00;4434573;32;34143;-69
2021/12/06 04:41:20;;;;;;;32.08;16.35;;;;;;;-0.18;100.00;98728.44;4432468;32;35922;-69
2021/12/06 04:44:08;;;;;;;27.60;14.90;;;;;;;-0.26;100.00;98713.63;4434919;32;34698;-69
2021/12/06 04:46:55;;;;;;;27.80;14.13;;;;;;;0.07;100.00;98711.59;4433031;32;35098;-69
2021/12/06 04:49:42;;;;;;;27.40;14.87;;;;;;;-0.24;100.00;98722.25;4432107;32;34673;-70
2021/12/06 04:52:28;;;;;;;28.33;14.48;;;;;;;-0.26;100.00;98731.66;4431413;32;34456;-70
2021/12/06 04:55:36;;;;;;;26.12;13.43;;;;;;;-0.22;100.00;98745.41;4430831;32;35440;-69
2021/12/06 04:58:27;;;;;;;30.90;13.07;;;;;;;-0.24;100.00;98738.38;4431226;32;33816;-69
2021/12/06 05:01:20;;;;;;;26.98;16.20;;;;;;;-0.13;100.00;98738.44;4430810;32;35330;-69
2021/12/06 05:04:19;;;;;;;25.37;12.98;;;;;;;-0.42;100.00;98738.03;4431505;32;34879;-69
2021/12/06 05:07:12;;;;;;;25.85;13.80;;;;;;;-0.19;100.00;98750.28;4431324;32;35597;-70
2021/12/06 05:09:58;;;;;;;27.35;15.55;;;;;;;-0.09;100.00;98745.72;4420796;32;35253;-69
2021/12/06 05:12:46;;;;;;;24.63;14.05;;;;;;;-0.15;100.00;98754.03;4430521;32;34420;-69
2021/12/06 05:15:34;;;;;;;26.83;13.77;;;;;;;-0.29;100.00;98757.19;4432100;32;34624;-70
2021/12/06 05:18:21;;;;;;;23.85;13.57;;;;;;;-0.08;100.00;98758.13;4431165;32;35461;-70
2021/12/06 05:21:08;;;;;;;27.77;14.18;;;;;;;-0.09;100.00;98761.88;4429081;32;34268;-70
2021/12/06 05:23:55;;;;;;;24.52;13.13;;;;;;;0.06;100.00;98771.94;4431856;32;34655;-70
2021/12/06 05:26:40;;;;;;;28.52;13.40;;;;;;;-0.31;100.00;98772.81;4431814;32;35029;-70
2021/12/06 05:29:30;;;;;;;26.00;13.38;;;;;;;0.20;100.00;98774.94;4433254;32;35651;-70
2021/12/06 05:32:16;;;;;;;26.48;14.68;;;;;;;0.63;100.00;98783.69;4431703;32;35260;-70
2021/12/06 05:35:07;;;;;;;27.83;12.18;;;;;;;0.03;100.00;98774.31;4431393;32;34353;-70
2021/12/06 05:37:55;;;;;;;27.08;12.55;;;;;;;0.98;100.00;98774.00;4429448;32;34842;-70
2021/12/06 05:40:43;;;;;;;26.33;12.85;;;;;;;1.11;100.00;98768.06;4431054;32;34731;-70
2021/12/06 05:43:30;;;;;;;21.02;11.55;;;;;;;1.66;96.71;98774.50;4428416;32;35265;-71
2021/12/06 05:46:17;;;;;;;19.12;11.00;;;;;;;2.18;93.75;98767.81;4428518;32;34711;-72
2021/12/06 05:49:03;;;;;;;20.70;10.13;;;;;;;2.54;92.08;98766.84;4429945;32;35140;-70
2021/12/06 05:51:49;;;;;;;15.10;8.93;;;;;;;1.36;94.75;98769.94;4429661;32;34599;-72
2021/12/06 05:54:36;;;;;;;19.67;11.25;;;;;;;1.65;95.62;98777.44;4431180;32;35010;-71
2021/12/06 05:57:23;;;;;;;21.00;10.55;;;;;;;1.83;92.95;98781.47;4427128;32;34626;-72
2021/12/06 06:00:13;;;;;;;21.73;11.52;;;;;;;2.01;94.93;98780.87;4429776;32;34914;-71
2021/12/06 06:03:01;;;;;;;22.65;12.15;;;;;;;0.83;98.69;98789.09;4433559;32;34744;-71
2021/12/06 06:05:47;;;;;;;25.67;13.38;;;;;;;0.70;100.00;98789.63;4430136;32;34129;-71
2021/12/06 06:08:34;;;;;;;26.65;14.82;;;;;;;-0.07;100.00;98797.44;4435292;32;34275;-71
2021/12/06 06:11:20;;;;;;;30.83;14.80;;;;;;;0.21;100.00;98806.19;4435601;32;34944;-71
2021/12/06 06:14:07;;;;;;;32.92;16.67;;;;;;;0.39;100.00;98813.78;4433345;32;35270;-71
2021/12/06 06:16:54;;;;;;;36.20;17.05;;;;;;;-0.22;100.00;98816.22;4435927;32;34324;-71
2021/12/06 06:19:46;;;;;;;39.58;18.35;;;;;;;-0.28;100.00;98817.25;4432879;32;34671;-71
2021/12/06 06:22:33;;;;;;;44.65;20.20;;;;;;;-0.14;100.00;98815.72;4430609;32;34769;-72
2021/12/06 06:25:20;;;;;;;39.80;18.27;;;;;;;-0.25;100.00;98822.13;4431300;32;34956;-71
2021/12/06 06:28:07;;;;;;;40.88;19.12;;;;;;;-0.02;100.00;98820.91;4427095;32;34469;-73
2021/12/06 06:30:54;;;;;;;40.60;19.58;;;;;;;0.10;100.00;98818.81;4434357;32;34251;-72
2021/12/06 06:33:40;;;;;;;44.20;21.02;;;;;;;0.09;100.00;98816.38;4434647;32;34937;-72
2021/12/06 06:36:26;;;;;;;42.75;19.60;;;;;;;-0.06;100.00;98826.00;4433460;32;34704;-71
2021/12/06 06:39:13;;;;;;;39.50;18.30;;;;;;;-0.14;100.00;98829.19;4434692;32;33957;-73
2021/12/06 06:42:00;;;;;;;42.67;19.52;;;;;;;0.19;100.00;98830.69;4432915;32;35589;-75
2021/12/06 06:44:46;;;;;;;47.70;19.90;;;;;;;0.09;100.00;98844.13;4432299;32;34953;-74
2021/12/06 06:47:33;;;;;;;45.10;19.12;;;;;;;0.34;100.00;98839.91;4433579;32;34655;-73
2021/12/06 06:50:20;;;;;;;47.65;20.02;;;;;;;0.21;100.00;98843.91;4421595;32;35538;-72
2021/12/06 06:53:07;;;;;;;46.15;20.00;;;;;;;0.30;100.00;98849.59;4431149;32;35299;-71
2021/12/06 06:55:54;;;;;;;46.00;18.70;;;;;;;-0.08;100.00;98865.03;4432802;32;34475;-74
2021/12/06 06:58:40;;;;;;;51.53;20.00;;;;;;;0.16;100.00;98866.25;4429823;32;34574;-73
2021/12/06 07:01:28;;;;;;;47.30;19.05;;;;;;;0.32;100.00;98872.53;4433639;32;35216;-73
2021/12/06 07:04:15;;;;;;;48.25;21.17;;;;;;;0.10;100.00;98877.25;4428899;32;34775;-72
2021/12/06 07:07:01;;;;;;;44.88;19.92;;;;;;;0.08;100.00;98874.00;4434178;32;35943;-71
2021/12/06 07:09:48;;;;;;;48.55;20.17;;;;;;;0.42;100.00;98877.94;4433530;32;35237;-72
2021/12/06 07:12:45;;;;;;;45.12;21.40;;;;;;;0.30;100.00;98893.53;4433751;32;35031;-73
2021/12/06 07:15:33;;;;;;;52.47;21.98;;;;;;;0.42;100.00;98896.81;4431973;32;34594;-73
2021/12/06 07:18:19;;;;;;;53.85;22.25;;;;;;;0.54;100.00;98893.09;4420842;32;34583;-72
2021/12/06 07:21:06;;;;;;;60.63;22.45;;;;;;;0.17;100.00;98904.75;4433531;32;34801;-71
2021/12/06 07:23:52;;;;;;;54.88;22.30;;;;;;;0.24;100.00;98899.97;4432942;32;34408;-72
2021/12/06 07:26:38;;;;;;;55.40;23.95;;;;;;;0.49;100.00;98898.47;4434025;32;34135;-73
2021/12/06 07:29:25;;;;;;;57.28;23.55;;;;;;;0.63;100.00;98905.00;4434394;32;33840;-72
2021/12/06 07:32:11;;;;;;;57.53;23.45;;;;;;;0.27;100.00;98909.41;4432598;32;35492;-72
2021/12/06 07:34:58;;;;;;;61.67;24.30;;;;;;;0.41;100.00;98910.56;4429639;32;35205;-73
2021/12/06 07:37:44;;;;;;;58.65;24.00;;;;;;;1.12;100.00;98907.31;4434177;32;34240;-73
2021/12/06 07:40:30;;;;;;;60.08;25.20;;;;;;;0.77;100.00;98903.44;4433481;32;35075;-73
2021/12/06 07:43:17;;;;;;;65.25;26.23;;;;;;;0.49;100.00;98914.66;4431670;32;34688;-73
2021/12/06 07:46:06;;;;;;;66.32;25.67;;;;;;;0.12;100.00;98912.84;4430403;32;33931;-72
2021/12/06 07:48:53;;;;;;;63.58;24.92;;;;;;;0.72;100.00;98914.19;4432035;32;34615;-71
2021/12/06 07:51:39;;;;;;;73.20;28.05;;;;;;;0.16;100.00;98916.63;4431342;32;34628;-71
2021/12/06 07:54:26;;;;;;;65.90;27.77;;;;;;;0.17;100.00;98916.38;4432873;32;35579;-73
2021/12/06 07:57:13;;;;;;;71.22;27.42;;;;;;;0.27;100.00;98918.31;4430586;32;34212;-72
2021/12/06 07:59:59;;;;;;;73.40;28.35;;;;;;;0.35;100.00;98922.41;4433488;32;34654;-73
2021/12/06 08:02:47;;;;;;;73.12;29.42;;;;;;;0.09;100.00;98916.84;4431367;32;34899;-73
2021/12/06 08:05:37;;;;;;;87.32;35.72;;;;;;;-0.06;100.00;98920.28;4430579;32;34221;-72
2021/12/06 08:08:26;;;;;;;82.10;35.33;;;;;;;0.04;100.00;98921.41;4427234;32;34139;-73
2021/12/06 08:11:14;;;;;;;80.43;32.75;;;;;;;-0.12;100.00;98929.34;4421355;32;34190;-71
2021/12/06 08:14:02;;;;;;;88.57;36.00;;;;;;;-0.10;100.00;98932.59;4430686;32;34990;-71
2021/12/06 08:16:49;;;;;;;94.70;41.53;;;;;;;-0.02;100.00;98928.63;4428511;32;35512;-70
2021/12/06 08:19:35;;;;;;;89.85;31.37;;;;;;;-0.15;100.00;98929.88;4429266;32;35784;-69
2021/12/06 08:22:22;;;;;;;87.90;34.10;;;;;;;0.08;100.00;98927.88;4428591;32;34688;-70
2021/12/06 08:25:12;;;;;;;86.45;31.12;;;;;;;0.15;100.00;98929.28;4428089;32;34496;-72
2021/12/06 08:27:59;;;;;;;88.35;33.38;;;;;;;0.31;100.00;98935.56;4427665;32;34141;-72
2021/12/06 08:30:45;;;;;;;82.07;32.38;;;;;;;0.18;100.00;98939.53;4425854;32;34244;-71
2021/12/06 08:33:34;;;;;;;84.65;35.83;;;;;;;0.22;100.00;98939.81;4425525;32;34609;-72
2021/12/06 08:36:24;;;;;;;83.10;34.80;;;;;;;0.08;100.00;98944.84;4418977;32;34696;-72
2021/12/06 08:39:10;;;;;;;78.87;30.33;;;;;;;0.13;100.00;98960.25;4431663;32;34557;-73
2021/12/06 08:41:56;;;;;;;82.47;35.80;;;;;;;0.30;100.00;98962.78;4431799;32;34311;-71
2021/12/06 08:44:43;;;;;;;86.53;36.42;;;;;;;-0.01;100.00;98971.44;4430500;32;34218;-71
2021/12/06 08:47:29;;;;;;;85.35;36.60;;;;;;;0.03;100.00;98973.63;4429706;32;34886;-70
2021/12/06 08:50:19;;;;;;;89.95;34.35;;;;;;;0.10;100.00;98971.53;4430825;32;34742;-71
2021/12/06 08:53:05;;;;;;;81.57;33.85;;;;;;;0.14;100.00;98975.31;4430430;32;34091;-72
2021/12/06 08:55:53;;;;;;;84.68;38.25;;;;;;;0.19;100.00;98975.38;4429436;32;34711;-72
2021/12/06 08:58:40;;;;;;;84.15;31.37;;;;;;;0.04;100.00;98975.25;4432711;32;34775;-70
2021/12/06 09:01:27;;;;;;;74.43;28.35;;;;;;;0.35;100.00;98966.31;4430987;32;35714;-73
2021/12/06 09:04:37;;;;;;;68.78;27.90;;;;;;;0.50;100.00;98978.25;4429004;32;33855;-72
2021/12/06 09:07:24;;;;;;;65.93;28.08;;;;;;;0.68;100.00;98975.09;4429436;32;34264;-71
2021/12/06 09:10:12;;;;;;;60.45;27.52;;;;;;;0.37;100.00;98969.56;4430727;32;35049;-72
2021/12/06 09:12:58;;;;;;;66.07;28.70;;;;;;;0.54;100.00;98974.78;4425057;32;34714;-72
2021/12/06 09:15:44;;;;;;;60.90;27.75;;;;;;;0.48;100.00;98969.63;4417627;32;34422;-72
2021/12/06 09:18:34;;;;;;;60.35;27.40;;;;;;;0.89;100.00;98965.25;4425186;32;34659;-70
2021/12/06 09:21:23;;;;;;;54.58;26.90;;;;;;;1.27;100.00;98960.50;4430243;32;34955;-70
2021/12/06 09:24:14;;;;;;;50.90;25.15;;;;;;;1.05;100.00;98947.19;4424796;32;34704;-72
2021/12/06 09:27:01;;;;;;;40.22;19.08;;;;;;;0.89;100.00;98949.84;4426963;32;33971;-71
2021/12/06 09:29:47;;;;;;;41.95;21.25;;;;;;;1.50;100.00;98940.28;4427745;32;34405;-71
2021/12/06 09:32:33;;;;;;;51.83;26.83;;;;;;;1.41;100.00;98933.81;4428877;32;34545;-71
2021/12/06 09:35:25;;;;;;;43.75;22.58;;;;;;;1.31;100.00;98931.91;4426381;32;35482;-71
2021/12/06 09:38:15;;;;;;;40.08;21.15;;;;;;;1.65;100.00;98939.47;4427107;32;34098;-73
2021/12/06 09:41:03;;;;;;;43.13;20.88;;;;;;;1.18;100.00;98937.81;4426754;32;35286;-72
2021/12/06 09:43:51;;;;;;;42.15;21.62;;;;;;;1.52;100.00;98933.53;4429936;32;33685;-70
2021/12/06 09:46:39;;;;;;;39.83;21.23;;;;;;;0.98;100.00;98942.06;4426614;32;34387;-71
2021/12/06 09:49:25;;;;;;;35.72;18.33;;;;;;;1.37;100.00;98948.91;4424454;32;34065;-72
2021/12/06 09:52:14;;;;;;;41.80;23.05;;;;;;;1.37;100.00;98936.22;4426925;32;35612;-71
2021/12/06 09:55:00;;;;;;;40.35;21.58;;;;;;;0.77;100.00;98935.81;4429487;32;34939;-71
2021/12/06 09:57:47;;;;;;;40.88;21.70;;;;;;;1.08;100.00;98936.72;4418258;32;34665;-72
2021/12/06 10:00:38;;;;;;;38.20;21.02;;;;;;;1.10;100.00;98928.34;4430157;32;35783;-71
2021/12/06 10:03:28;;;;;;;38.38;19.98;;;;;;;0.91;100.00;98925.31;4432218;32;34359;-71
2021/12/06 10:06:17;;;;;;;35.65;20.50;;;;;;;1.15;100.00;98920.25;4431394;32;35008;-72
2021/12/06 10:09:06;;;;;;;36.28;19.67;;;;;;;1.16;100.00;98904.88;4417919;32;34283;-72
2021/12/06 10:11:55;;;;;;;34.55;18.98;;;;;;;0.99;100.00;98910.50;4429482;32;35499;-71
2021/12/06 10:14:42;;;;;;;33.42;19.02;;;;;;;1.36;100.00;98913.00;4430676;32;34660;-71
2021/12/06 10:17:29;;;;;;;34.00;18.50;;;;;;;1.15;100.00;98914.88;4431254;32;34785;-71
2021/12/06 10:20:15;;;;;;;35.85;19.80;;;;;;;1.35;100.00;98914.09;4428062;32;34162;-71
2021/12/06 10:23:02;;;;;;;36.92;22.87;;;;;;;1.22;100.00;98915.41;4428667;32;35048;-72
2021/12/06 10:25:51;;;;;;;33.10;19.95;;;;;;;1.04;100.00;98903.22;4430033;32;35085;-71
2021/12/06 10:28:40;;;;;;;34.80;19.08;;;;;;;1.08;100.00;98907.03;4430015;32;34509;-70
2021/12/06 10:31:31;;;;;;;35.17;20.73;;;;;;;1.28;100.00;98897.31;4428315;32;34664;-71
2021/12/06 10:34:24;;;;;;;34.15;20.75;;;;;;;1.26;100.00;98905.72;4431250;32;35191;-71
2021/12/06 10:37:52;;;;;;;32.90;19.17;;;;;;;1.29;100.00;98904.37;4430514;32;34518;-71
2021/12/06 10:40:41;;;;;;;31.25;18.77;;;;;;;1.50;100.00;98921.38;4428112;32;34472;-71
2021/12/06 10:43:27;;;;;;;33.60;19.42;;;;;;;1.44;100.00;98935.97;4424586;32;34603;-72
2021/12/06 10:46:16;;;;;;;33.42;19.00;;;;;;;1.16;100.00;98959.66;4428969;32;34896;-73
2021/12/06 10:49:05;;;;;;;32.70;19.95;;;;;;;1.57;100.00;98967.84;4427654;32;34514;-71
2021/12/06 10:51:52;;;;;;;31.05;17.70;;;;;;;1.18;100.00;98989.88;4428628;32;34696;-72
2021/12/06 10:54:40;;;;;;;31.48;18.58;;;;;;;1.43;100.00;98994.53;4427037;32;34271;-71
2021/12/06 10:57:45;;;;;;;32.45;19.00;;;;;;;1.61;100.00;98989.72;4426860;32;34310;-71
2021/12/06 11:00:42;;;;;;;33.15;20.92;;;;;;;1.77;100.00;98994.06;4423064;32;34506;-73
2021/12/06 11:03:45;;;;;;;31.05;18.17;;;;;;;1.44;100.00;98995.34;4416727;32;34432;-73
2021/12/06 11:06:36;;;;;;;31.40;19.30;;;;;;;1.86;100.00;98994.34;4427666;32;36309;-71
2021/12/06 11:09:25;;;;;;;32.00;18.27;;;;;;;1.71;100.00;98987.03;4423151;32;35335;-71
2021/12/06 11:12:18;;;;;;;28.77;18.30;;;;;;;1.51;100.00;98982.41;4427042;32;34238;-72
2021/12/06 11:15:13;;;;;;;27.35;17.55;;;;;;;1.40;100.00;98986.97;4425990;32;35771;-73
2021/12/06 11:18:00;;;;;;;26.70;16.20;;;;;;;1.84;100.00;98986.50;4417026;32;34212;-73
2021/12/06 11:20:48;;;;;;;25.33;15.55;;;;;;;2.03;100.00;99000.28;4430074;32;35120;-73
2021/12/06 11:23:34;;;;;;;24.90;15.55;;;;;;;1.94;100.00;98994.59;4430951;32;34400;-74
2021/12/06 11:26:22;;;;;;;25.17;15.98;;;;;;;1.68;100.00;99004.59;4426981;32;34983;-73
2021/12/06 11:29:16;;;;;;;26.12;16.17;;;;;;;1.82;100.00;99009.44;4430021;32;35091;-73
2021/12/06 11:32:32;;;;;;;24.67;15.38;;;;;;;1.97;100.00;99012.19;4425258;32;33991;-74
2021/12/06 11:35:24;;;;;;;23.33;14.27;;;;;;;2.68;96.91;99011.28;4425656;32;35723;-74
2021/12/06 11:38:17;;;;;;;;;;;;;;;2.18;98.30;99016.47;4431255;32;34735;-73
2021/12/06 11:41:10;;;;;;;22.95;14.30;;;;;;;2.47;97.28;99005.91;4426697;32;35371;-73
2021/12/06 11:43:58;;;;;;;23.25;14.60;;;;;;;2.47;96.85;99018.63;4425465;32;33831;-74
2021/12/06 11:46:46;;;;;;;19.95;14.87;;;;;;;2.16;98.50;99023.25;4428114;32;34286;-71
2021/12/06 11:49:38;;;;;;;20.83;13.48;;;;;;;1.65;99.46;99020.50;4429009;32;34656;-71
2021/12/06 11:52:28;;;;;;;19.12;12.60;;;;;;;2.15;99.92;99019.72;4424311;32;32437;-73
2021/12/06 11:55:15;;;;;;;20.67;13.50;;;;;;;2.03;98.41;99014.59;4424352;32;34142;-72
2021/12/06 11:58:03;;;;;;;18.55;11.63;;;;;;;1.90;100.00;99011.63;4428339;32;35488;-73
2021/12/06 12:01:11;;;;;;;20.58;13.18;;;;;;;2.08;98.46;99013.81;4422137;32;34760;-72
2021/12/06 12:04:01;;;;;;;19.05;12.45;;;;;;;2.61;95.36;99016.97;4427448;32;34933;-73
2021/12/06 12:07:00;;;;;;;21.15;12.75;;;;;;;2.44;96.89;99021.88;4427823;32;34313;-72
2021/12/06 12:09:47;;;;;;;19.65;11.60;;;;;;;2.67;96.05;99015.06;4418457;32;35117;-73
2021/12/06 12:12:33;;;;;;;23.10;14.32;;;;;;;2.41;96.21;99017.00;4429527;32;34501;-72
2021/12/06 12:15:20;;;;;;;21.67;12.70;;;;;;;2.38;96.74;99012.16;4428163;32;34434;-72
2021/12/06 12:18:07;;;;;;;19.83;12.40;;;;;;;2.35;96.29;98999.97;4426144;32;35048;-73
2021/12/06 12:21:09;;;;;;;19.65;13.55;;;;;;;2.41;95.76;99006.19;4427554;32;34198;-72
2021/12/06 12:23:58;;;;;;;21.87;13.20;;;;;;;2.21;97.44;98993.50;4425054;32;34699;-72
2021/12/06 12:26:56;;;;;;;19.98;11.98;;;;;;;2.29;97.59;99000.28;4422333;32;35406;-72
2021/12/06 12:29:44;;;;;;;18.42;11.52;;;;;;;2.33;97.97;98998.62;4422749;32;34221;-72
2021/12/06 12:32:31;;;;;;;17.87;12.05;;;;;;;2.56;96.11;98987.25;4425806;32;34621;-72
2021/12/06 12:35:17;;;;;;;20.08;13.32;;;;;;;2.62;96.97;98986.16;4428813;32;34659;-72
2021/12/06 12:38:04;;;;;;;22.25;12.57;;;;;;;2.73;95.70;98980.69;4424356;32;34189;-72
2021/12/06 12:40:55;;;;;;;26.33;15.23;;;;;;;3.13;93.79;98991.38;4429678;32;35226;-72
2021/12/06 12:43:51;;;;;;;21.37;12.85;;;;;;;2.85;94.20;98995.56;4427113;32;34115;-73
2021/12/06 12:46:40;;;;;;;20.08;11.45;;;;;;;2.98;93.21;98987.91;4427462;32;35979;-73
2021/12/06 12:49:30;;;;;;;19.42;11.63;;;;;;;2.65;95.95;98987.50;4417351;32;33203;-73
2021/12/06 12:52:33;;;;;;;19.85;11.70;;;;;;;2.63;95.97;98992.38;4431136;32;34424;-73
2021/12/06 12:55:21;;;;;;;19.65;10.40;;;;;;;2.76;93.60;98988.25;4427798;32;34505;-72
2021/12/06 12:58:30;;;;;;;20.48;11.43;;;;;;;2.75;94.40;98989.34;4431991;32;36007;-73
2021/12/06 13:01:19;;;;;;;19.80;10.60;;;;;;;2.75;94.62;98995.56;4430496;32;34910;-72
2021/12/06 13:04:05;;;;;;;17.77;10.40;;;;;;;2.69;94.40;99000.19;4430490;32;35324;-72
2021/12/06 13:06:52;;;;;;;17.45;10.57;;;;;;;2.56;95.36;99006.19;4427418;32;34378;-73
2021/12/06 13:09:38;;;;;;;17.45;9.85;;;;;;;2.62;95.70;99007.00;4427656;32;33825;-73
2021/12/06 13:12:28;;;;;;;16.98;8.98;;;;;;;2.63;94.76;99005.88;4431903;32;35339;-72
2021/12/06 13:15:19;;;;;;;20.67;9.63;;;;;;;2.73;94.03;99002.34;4428510;32;34316;-72
2021/12/06 13:18:29;;;;;;;15.65;8.85;;;;;;;2.66;94.73;99003.44;4430654;32;34696;-73